Flight Track Log - Related Links

Times and Time Zones

All times are in EDT time to prevent confusion due to time zone crossing. See the CHQ6366 flight status page for this flight to view local times or setup timezone preferences in your user account.

Time Position Orientation Groundspeed Altitude Reporting Facility
EDT Latitude Longitude Course Direction KTS MPH feet Rate Location/Type
Sun 11:31:41 AM 40.8333 -73.9000 33° Northeast 186 214 2,800  Level New York TRACON
Sun 11:32:41 AM 40.8833 -73.8833 14° North 255 293 4,800 2,450 Climbing New York TRACON
Sun 11:33:41 AM 40.9167 -73.7833 66° East 253 291 7,700 2,550 Climbing New York TRACON
Sun 11:34:41 AM 40.9500 -73.7000 62° Northeast 275 316 9,900 1,582 Climbing New York TRACON
Sun 11:36:00 AM 41.2571 -73.4751 33° Northeast  Level FlightAware Approximate
Sun 11:36:43 AM 41.0714 -73.5636 40° Northeast 309 356 12,500  Level Boston Center
Sun 11:37:44 AM 41.1606 -73.5097 24° Northeast 320 368 14,400 1,561 Climbing Boston Center
Sun 11:38:46 AM 41.2444 -73.4586 25° Northeast 327 376 15,700 1,268 Climbing Boston Center
Sun 11:39:47 AM 41.3292 -73.4058 25° Northeast 334 384 17,000 1,366 Climbing Boston Center
Sun 11:40:49 AM 41.4219 -73.3481 25° Northeast 339 390 18,500 1,317 Climbing Boston Center
Sun 11:41:50 AM 41.4961 -73.3033 24° Northeast 340 391 19,700 1,366 Climbing Boston Center
Sun 11:42:52 AM 41.5908 -73.3022 North 333 383 21,300 1,452 Climbing Boston Center
Sun 11:43:54 AM 41.6831 -73.3056 358° North 332 382 22,700 1,220 Climbing Boston Center
Sun 11:44:55 AM 41.7742 -73.3072 359° North 331 381 23,800 1,073 Climbing Boston Center
Sun 11:45:57 AM 41.8886 -73.3114 358° North 339 390 24,900 585 Climbing Boston Center
Sun 11:46:58 AM 41.9886 -73.3150 358° North 356 410 25,000 49 Climbing Boston Center
Sun 11:48:00 AM 42.0969 -73.3172 359° North 384 442 25,000 -49 Level Boston Center
Sun 11:49:01 AM 42.2092 -73.3142 North 400 460 24,900 -488 Descending Boston Center
Sun 11:50:03 AM 42.2992 -73.2200 38° Northeast 418 481 24,000 -683 Descending Boston Center
Sun 11:51:04 AM 42.3703 -73.0975 52° Northeast 412 474 23,500 -492 Descending Boston Center
Sun 11:52:05 AM 42.4386 -72.9794 52° Northeast 416 479 23,000 -244 Descending Boston Center
Sun 11:53:07 AM 42.5231 -72.8322 52° Northeast 416 479 23,000  Level Boston Center
Sun 11:54:08 AM 42.5936 -72.7086 52° Northeast 415 478 23,000 -488 Level Boston Center
Sun 11:55:10 AM 42.6653 -72.5803 53° Northeast 411 473 22,000 -976 Descending Boston Center
Sun 11:56:11 AM 42.7325 -72.4625 52° Northeast 400 460 21,000 -492 Descending Boston Center
Sun 11:57:12 AM 42.7997 -72.3461 52° Northeast 394 453 21,000  Level Boston Center
Sun 11:58:14 AM 42.8589 -72.2386 53° Northeast 395 455 21,000  Level Boston Center
Sun 11:59:15 AM 42.9406 -72.0917 53° Northeast 401 461 21,000  Level Boston Center
Sun 12:00:17 PM 43.0092 -71.9689 53° Northeast 407 468 21,000  Level Boston Center
Sun 12:01:18 PM 43.0839 -71.8517 49° Northeast 406 467 21,000 -295 Level Boston Center
Sun 12:02:19 PM 43.1800 -71.7647 33° Northeast 416 479 20,400 -1,171 Descending Boston Center
Sun 12:03:21 PM 43.2717 -71.6767 35° Northeast 379 436 18,600 -1,854 Descending Boston Center
Sun 12:04:22 PM 43.3189 -71.5528 62° Northeast 369 425 16,600 -2,016 Descending Boston Center
Sun 12:05:23 PM 43.3653 -71.4219 64° Northeast 358 412 14,500 -2,000 Descending Boston Center
Sun 12:06:25 PM 43.4039 -71.3100 65° Northeast 331 381 12,500 -1,707 Descending Boston Center
Sun 12:07:26 PM 43.4400 -71.2072 64° Northeast 304 350 11,000 -738 Descending Boston Center
Sun 12:08:27 PM 43.4706 -71.1067 67° East 271 312 11,000  Level Boston Center
Sun 12:09:29 PM 43.4992 -71.0156 67° East 263 303 11,000 -683 Level Boston Center
Sun 12:10:30 PM 43.5492 -70.9458 45° Northeast 256 295 9,600 -1,721 Descending Boston Center
Sun 12:11:31 PM 43.5928 -70.8694 52° Northeast 254 292 7,500 -2,000 Descending Boston Center
Sun 12:12:33 PM 43.6219 -70.7706 68° East 260 299 5,500 -1,854 Descending Boston Center
Sun 12:13:34 PM 43.6492 -70.6839 67° East 249 287 3,700 -1,475 Descending Boston Center
Sun 12:14:35 PM 43.6636 -70.6022 76° East 228 262 2,500 -585 Descending Boston Center
Sun 12:15:37 PM 43.6586 -70.5231 95° East 196 226 2,500 -244 Level Boston Center
Sun 12:16:38 PM 43.6539 -70.4542 95° East 185 213 2,000 -717 Descending Boston Center
Sun 12:18:41 PM 43.6464 -70.3358 95° East 151 174 300 -620 Descending Boston Center
Sun 12:19:42 PM 43.6425 -70.2828 96° East 151 174 100 -197 Descending Boston Center

Login

Don't have an account? Register now (free) for customized features, flight alerts, and more!